Terminal Aerodrome Forecast
Issued by NWS Buffalo, NY

Home | Current Version | Previous Version | Text Only | Print | Product List | Glossary On
Versions: 1 2 3 4 5 6 7 8 9 10 11 12 13 14 15 16 17 18 19 20 21 22 23 24 25 26
000
FTUS41 KBUF 290500 RRA
TAFROC
TAF
KROC 290545Z 2906/3006 25006KT P6SM SKC
     FM291000 28006KT P6SM BKN030
     FM291400 32008KT P6SM BKN030
     FM291900 33009KT P6SM BKN110
     FM300500 VRB03KT P6SM BKN080=

USA.gov is the U.S. government's official web portal to all federal, state and local government web resources and services.